createdAt,value
2023-02-11T00:04:38.735Z,101805.03
2023-02-11T00:10:41.147Z,101807.25
2023-02-11T00:16:43.669Z,101760.66
2023-02-11T00:22:46.067Z,101780.81
2023-02-11T00:28:51.532Z,101815.16
2023-02-11T00:34:55.980Z,101810.59
2023-02-11T00:40:58.439Z,101714.78
2023-02-11T00:47:00.148Z,101784.09
2023-02-11T00:53:02.340Z,101767.13
2023-02-11T00:59:04.811Z,101765.41
2023-02-11T01:05:07.273Z,101635.28
2023-02-11T01:11:15.735Z,101704.81
2023-02-11T01:17:18.197Z,101695.97
2023-02-11T01:23:21.637Z,101718.13
2023-02-11T01:29:24.084Z,101660.00
2023-02-11T01:35:25.931Z,101717.41
2023-02-11T01:41:27.645Z,101708.34
2023-02-11T01:47:30.452Z,101735.41
2023-02-11T01:53:51.971Z,101670.25
2023-02-11T02:00:06.472Z,101733.63
2023-02-11T02:06:50.722Z,101692.19
2023-02-11T02:12:54.551Z,101724.72
2023-02-11T02:19:09.091Z,101725.81
2023-02-11T02:26:04.770Z,101714.84
2023-02-11T02:32:34.549Z,101712.88
2023-02-11T02:39:04.899Z,101708.38
2023-02-11T02:45:11.929Z,101681.28
2023-02-11T02:51:32.914Z,101708.06
2023-02-11T02:58:17.410Z,101701.56
2023-02-11T03:04:34.810Z,101705.69
2023-02-11T03:10:44.859Z,101699.75
2023-02-11T03:16:49.035Z,101659.41
2023-02-11T03:22:50.783Z,101691.19
2023-02-11T03:29:05.982Z,101686.72
2023-02-11T03:35:22.508Z,101631.75
2023-02-11T03:41:34.018Z,101659.91
2023-02-11T03:47:40.463Z,101493.38
2023-02-11T03:53:45.932Z,101657.59
2023-02-11T03:59:59.515Z,101589.13
2023-02-11T04:06:01.290Z,101616.13
2023-02-11T04:12:03.330Z,101646.69
2023-02-11T04:18:08.839Z,101624.78
2023-02-11T04:24:11.318Z,101628.03
2023-02-11T04:30:17.805Z,101429.66
2023-02-11T04:36:20.234Z,101619.38
2023-02-11T04:42:23.679Z,101589.91
2023-02-11T04:48:26.144Z,101593.72
2023-02-11T04:54:28.593Z,101560.69
2023-02-11T05:00:31.020Z,101410.81
2023-02-11T05:06:33.503Z,101597.97
2023-02-11T05:12:37.970Z,101527.38
2023-02-11T05:18:42.426Z,101552.78
2023-02-11T05:24:44.876Z,101607.28
2023-02-11T05:30:46.851Z,101600.78
2023-02-11T05:36:48.655Z,101612.09
2023-02-11T05:42:50.384Z,101615.91
2023-02-11T05:48:52.425Z,101539.94
2023-02-11T05:54:54.492Z,101613.03
2023-02-11T06:00:56.789Z,101601.28
2023-02-11T06:06:58.473Z,101596.38
2023-02-11T06:13:02.516Z,101551.97
2023-02-11T06:19:04.949Z,101573.13
2023-02-11T06:25:07.219Z,101557.38
2023-02-11T06:31:10.964Z,101522.25
2023-02-11T06:37:13.333Z,101600.13
2023-02-11T06:43:16.870Z,101580.09
2023-02-11T06:49:19.235Z,101548.75
2023-02-11T06:55:21.695Z,101562.44
2023-02-11T07:01:26.248Z,101588.13
2023-02-11T07:07:34.340Z,101576.91
2023-02-11T07:13:39.538Z,101456.47
2023-02-11T07:19:43.589Z,101509.50
2023-02-11T07:25:46.053Z,101546.00
2023-02-11T07:31:51.563Z,101474.22
2023-02-11T07:37:54.035Z,101520.69
2023-02-11T07:43:56.083Z,101524.91
2023-02-11T07:50:02.946Z,101384.97
2023-02-11T07:56:06.016Z,101466.91
2023-02-11T08:02:09.567Z,101396.81
2023-02-11T08:08:11.304Z,101471.69
2023-02-11T08:14:13.306Z,101475.34
2023-02-11T08:20:16.249Z,101417.97
2023-02-11T08:26:21.481Z,101473.56
2023-02-11T08:32:29.600Z,101453.97
2023-02-11T08:38:33.460Z,101444.53
2023-02-11T08:44:55.974Z,101418.84
2023-02-11T08:51:16.523Z,101408.72
2023-02-11T08:57:23.999Z,101370.16
2023-02-11T09:03:36.481Z,101389.22
2023-02-11T09:09:45.269Z,101278.09
2023-02-11T09:16:08.141Z,101274.72
2023-02-11T09:22:13.392Z,101194.75
2023-02-11T09:28:15.510Z,101360.63
2023-02-11T09:34:24.968Z,101139.00
2023-02-11T09:40:28.671Z,101226.03
2023-02-11T09:53:11.395Z,101252.50
2023-02-11T09:59:20.430Z,101165.75
2023-02-11T10:05:53.851Z,101156.38
2023-02-11T10:12:15.014Z,101237.09
2023-02-11T10:18:26.488Z,101228.50
2023-02-11T10:24:29.983Z,101110.19
2023-02-11T10:30:41.495Z,101110.28
2023-02-11T10:36:45.961Z,101172.13
2023-02-11T10:43:03.635Z,101163.16
2023-02-11T10:51:03.738Z,101049.09
2023-02-11T10:56:16.596Z,101117.56
2023-02-11T11:02:35.082Z,101010.53
2023-02-11T11:09:01.307Z,101101.50
2023-02-11T11:15:23.924Z,101099.28
2023-02-11T11:21:35.724Z,101074.22
2023-02-11T11:27:39.157Z,100913.03
2023-02-11T11:33:44.795Z,101084.47
2023-02-11T11:40:16.099Z,100957.41
2023-02-11T11:46:25.824Z,101061.59
2023-02-11T11:52:43.179Z,100994.25
2023-02-11T11:58:53.009Z,100990.41
2023-02-11T12:05:15.256Z,101008.84
2023-02-11T12:11:39.376Z,100999.28
2023-02-11T12:17:49.301Z,100981.63
2023-02-11T12:24:17.431Z,100968.97
2023-02-11T12:30:51.899Z,100954.81
2023-02-11T12:37:07.535Z,100940.44
2023-02-11T12:43:39.523Z,100926.03
2023-02-11T12:50:03.377Z,100918.25
2023-02-11T12:56:33.850Z,100918.25
2023-02-11T13:02:43.160Z,100894.13
2023-02-11T13:08:49.562Z,100899.50
2023-02-11T13:15:04.076Z,100809.84
2023-02-11T13:21:29.552Z,100871.06
2023-02-11T13:27:50.752Z,100878.69
2023-02-11T13:33:53.590Z,100770.03
2023-02-11T13:40:10.117Z,100856.94
2023-02-11T13:46:15.576Z,100869.38
2023-02-11T13:52:40.111Z,100871.22
2023-02-11T13:58:50.549Z,100864.50
2023-02-11T14:05:43.237Z,100699.16
2023-02-11T14:11:50.710Z,100869.28
2023-02-11T14:17:54.189Z,100844.75
2023-02-11T14:24:02.646Z,100849.97
2023-02-11T14:30:27.177Z,100844.31
2023-02-11T14:37:11.829Z,100846.69
2023-02-11T14:43:19.296Z,100859.38
2023-02-11T14:49:27.760Z,100843.72
2023-02-11T14:55:41.465Z,100825.88
2023-02-11T15:01:52.569Z,100800.53
2023-02-11T15:08:01.239Z,100815.06
2023-02-11T15:14:35.853Z,100627.44
2023-02-11T15:20:38.337Z,100803.72
2023-02-11T15:26:40.768Z,100701.16
2023-02-11T15:32:46.240Z,100812.06
2023-02-11T15:39:17.578Z,100816.34
2023-02-11T15:45:29.742Z,100749.44
2023-02-11T15:51:40.026Z,100789.81
2023-02-11T15:57:51.280Z,100788.94
2023-02-11T16:03:53.763Z,100722.38
2023-02-11T16:09:59.201Z,100797.66
2023-02-11T16:16:18.733Z,100769.44
2023-02-11T16:22:27.208Z,100622.06
2023-02-11T16:28:30.764Z,100684.16
2023-02-11T16:34:33.106Z,100619.63
2023-02-11T16:40:35.540Z,100763.34
2023-02-11T16:46:38.018Z,100761.94
2023-02-11T16:52:40.480Z,100769.13
2023-02-11T16:58:42.923Z,100620.19
2023-02-11T17:04:46.407Z,100748.56
2023-02-11T17:10:50.324Z,100771.03
2023-02-11T17:16:53.382Z,100755.94
2023-02-11T17:22:57.947Z,100679.44
2023-02-11T17:29:00.843Z,100761.59
2023-02-11T17:35:02.655Z,100754.97
2023-02-11T17:41:05.702Z,100775.06
2023-02-11T17:47:09.724Z,100744.94
2023-02-11T17:53:12.150Z,100663.47
2023-02-11T17:59:17.648Z,100720.78
2023-02-11T18:05:21.149Z,100654.34
2023-02-11T18:11:29.659Z,100725.09
2023-02-11T18:17:31.672Z,100716.13
2023-02-11T18:23:33.570Z,100714.31
2023-02-11T18:29:35.741Z,100721.50
2023-02-11T18:35:38.712Z,100669.81
2023-02-11T18:41:44.003Z,100632.50
2023-02-11T18:47:49.454Z,100724.19
2023-02-11T18:53:51.910Z,100732.56
2023-02-11T18:59:55.360Z,100733.63
2023-02-11T19:05:57.811Z,100721.81
2023-02-11T19:12:01.266Z,100712.50
2023-02-11T19:18:11.126Z,100729.16
2023-02-11T19:24:17.227Z,100590.75
2023-02-11T19:30:19.683Z,100649.69
2023-02-11T19:36:22.177Z,100717.44
2023-02-11T19:42:32.159Z,100739.09
2023-02-11T19:48:35.890Z,100727.38
2023-02-11T19:54:39.695Z,100566.53
2023-02-11T20:00:42.159Z,100683.69
2023-02-11T20:06:45.530Z,100563.63
2023-02-11T20:12:47.978Z,100594.16
2023-02-11T20:18:50.618Z,100706.41
2023-02-11T20:24:53.251Z,100704.31
2023-02-11T20:30:57.470Z,100692.16
2023-02-11T20:37:09.452Z,100608.38
2023-02-11T20:43:23.016Z,100681.28
2023-02-11T20:49:28.895Z,100627.44
2023-02-11T20:55:31.353Z,100427.00
2023-02-11T21:01:47.434Z,100688.91
2023-02-11T21:07:49.271Z,100545.13
2023-02-11T21:13:53.928Z,100681.44
2023-02-11T21:20:00.484Z,100677.91
2023-02-11T21:26:04.605Z,100638.13
2023-02-11T21:32:14.249Z,100622.63
2023-02-11T21:38:16.653Z,100549.88
2023-02-11T21:44:20.183Z,100643.16
2023-02-11T21:50:22.595Z,100653.31
2023-02-11T21:56:34.106Z,100684.72
2023-02-11T22:02:43.611Z,100534.34
2023-02-11T22:15:01.569Z,100693.59
2023-02-11T22:21:16.144Z,100672.75
2023-02-11T22:27:24.247Z,100499.72
2023-02-11T22:33:30.047Z,100700.56
2023-02-11T22:39:32.487Z,100691.16
2023-02-11T22:45:36.022Z,100637.69
2023-02-11T22:51:39.372Z,100643.25
2023-02-11T22:57:41.124Z,100688.78
2023-02-11T23:03:48.379Z,100655.31
2023-02-11T23:09:50.821Z,100675.75
2023-02-11T23:15:52.830Z,100678.31
2023-02-11T23:21:57.789Z,100669.53
2023-02-11T23:28:00.253Z,100511.84
2023-02-11T23:34:02.673Z,100529.03
2023-02-11T23:40:05.145Z,100610.56
2023-02-11T23:46:07.813Z,100682.50
2023-02-11T23:52:09.572Z,100647.28
2023-02-11T23:58:15.211Z,100667.91
